sensor_id;sensor_type;location;lat;lon;timestamp;pressure;altitude;pressure_sealevel;temperature;humidity
3260;BME280;68938;48.150;14.004;2023-05-08T00:01:56;98479.94;;;11.39;62.32
3260;BME280;68938;48.150;14.004;2023-05-08T00:04:23;98485.81;;;11.74;61.33
3260;BME280;68938;48.150;14.004;2023-05-08T00:06:50;98473.69;;;11.49;61.71
3260;BME280;68938;48.150;14.004;2023-05-08T00:09:18;98472.19;;;11.41;61.51
3260;BME280;68938;48.150;14.004;2023-05-08T00:11:46;98473.63;;;11.20;61.82
3260;BME280;68938;48.150;14.004;2023-05-08T00:14:13;98480.47;;;10.86;63.24
3260;BME280;68938;48.150;14.004;2023-05-08T00:16:40;98486.06;;;11.02;63.34
3260;BME280;68938;48.150;14.004;2023-05-08T00:19:07;98480.31;;;10.94;63.42
3260;BME280;68938;48.150;14.004;2023-05-08T00:21:34;98485.16;;;11.05;63.04
3260;BME280;68938;48.150;14.004;2023-05-08T00:24:01;98489.31;;;11.40;62.33
3260;BME280;68938;48.150;14.004;2023-05-08T00:26:28;98484.63;;;11.56;61.10
3260;BME280;68938;48.150;14.004;2023-05-08T00:28:55;98488.22;;;11.80;60.95
3260;BME280;68938;48.150;14.004;2023-05-08T00:31:22;98487.38;;;11.17;62.09
3260;BME280;68938;48.150;14.004;2023-05-08T00:33:49;98496.47;;;10.96;63.16
3260;BME280;68938;48.150;14.004;2023-05-08T00:36:16;98498.38;;;10.89;64.25
3260;BME280;68938;48.150;14.004;2023-05-08T00:38:43;98495.91;;;11.18;63.13
3260;BME280;68938;48.150;14.004;2023-05-08T00:41:10;98499.59;;;11.09;63.82
3260;BME280;68938;48.150;14.004;2023-05-08T00:43:36;98497.03;;;11.40;62.19
3260;BME280;68938;48.150;14.004;2023-05-08T00:46:04;98507.72;;;10.92;63.62
3260;BME280;68938;48.150;14.004;2023-05-08T00:48:33;98504.88;;;11.03;63.76
3260;BME280;68938;48.150;14.004;2023-05-08T00:51:02;98507.41;;;11.04;63.68
3260;BME280;68938;48.150;14.004;2023-05-08T00:53:34;98493.56;;;11.41;62.43
3260;BME280;68938;48.150;14.004;2023-05-08T00:56:07;98501.19;;;11.44;62.26
3260;BME280;68938;48.150;14.004;2023-05-08T00:58:36;98490.16;;;11.41;61.59
3260;BME280;68938;48.150;14.004;2023-05-08T01:01:04;98495.44;;;11.67;61.24
3260;BME280;68938;48.150;14.004;2023-05-08T01:03:32;98496.44;;;11.61;60.86
3260;BME280;68938;48.150;14.004;2023-05-08T01:06:02;98502.97;;;11.73;60.78
3260;BME280;68938;48.150;14.004;2023-05-08T01:08:30;98505.13;;;11.57;61.14
3260;BME280;68938;48.150;14.004;2023-05-08T01:13:49;98512.69;;;11.62;61.29
3260;BME280;68938;48.150;14.004;2023-05-08T01:16:44;98521.06;;;11.69;61.20
3260;BME280;68938;48.150;14.004;2023-05-08T01:22:38;98528.09;;;11.62;61.24
3260;BME280;68938;48.150;14.004;2023-05-08T01:34:02;98538.72;;;11.81;60.98
3260;BME280;68938;48.150;14.004;2023-05-08T01:36:57;98540.09;;;11.61;61.13
3260;BME280;68938;48.150;14.004;2023-05-08T01:39:28;98541.84;;;11.61;61.61
3260;BME280;68938;48.150;14.004;2023-05-08T01:45:10;98550.84;;;11.12;63.23
3260;BME280;68938;48.150;14.004;2023-05-08T01:47:43;98554.97;;;11.50;62.50
3260;BME280;68938;48.150;14.004;2023-05-08T01:50:21;98551.09;;;11.35;62.44
3260;BME280;68938;48.150;14.004;2023-05-08T01:53:07;98541.00;;;11.60;61.73
3260;BME280;68938;48.150;14.004;2023-05-08T01:55:42;98536.56;;;11.66;61.22
3260;BME280;68938;48.150;14.004;2023-05-08T01:58:13;98536.53;;;11.67;61.45
3260;BME280;68938;48.150;14.004;2023-05-08T02:00:41;98531.78;;;11.53;62.43
3260;BME280;68938;48.150;14.004;2023-05-08T02:03:10;98533.59;;;11.50;62.31
3260;BME280;68938;48.150;14.004;2023-05-08T02:05:40;98550.34;;;11.32;62.94
3260;BME280;68938;48.150;14.004;2023-05-08T02:08:10;98530.50;;;11.37;62.34
3260;BME280;68938;48.150;14.004;2023-05-08T02:10:40;98542.94;;;11.52;62.22
3260;BME280;68938;48.150;14.004;2023-05-08T02:13:09;98548.56;;;11.65;62.39
3260;BME280;68938;48.150;14.004;2023-05-08T02:15:37;98540.09;;;11.63;61.65
3260;BME280;68938;48.150;14.004;2023-05-08T02:18:07;98548.19;;;11.79;61.36
3260;BME280;68938;48.150;14.004;2023-05-08T02:20:35;98535.66;;;11.37;63.19
3260;BME280;68938;48.150;14.004;2023-05-08T02:23:03;98537.31;;;11.05;63.85
3260;BME280;68938;48.150;14.004;2023-05-08T02:25:31;98541.66;;;11.03;64.33
3260;BME280;68938;48.150;14.004;2023-05-08T02:27:59;98545.50;;;11.20;63.88
3260;BME280;68938;48.150;14.004;2023-05-08T02:30:27;98540.84;;;11.34;62.98
3260;BME280;68938;48.150;14.004;2023-05-08T02:32:55;98552.69;;;11.39;63.46
3260;BME280;68938;48.150;14.004;2023-05-08T02:35:27;98565.09;;;11.24;64.16
3260;BME280;68938;48.150;14.004;2023-05-08T02:37:57;98560.09;;;11.19;64.29
3260;BME280;68938;48.150;14.004;2023-05-08T02:40:26;98559.13;;;11.56;62.93
3260;BME280;68938;48.150;14.004;2023-05-08T02:42:54;98554.00;;;11.87;61.78
3260;BME280;68938;48.150;14.004;2023-05-08T02:45:25;98556.09;;;11.73;61.89
3260;BME280;68938;48.150;14.004;2023-05-08T02:48:40;98563.97;;;11.34;63.66
3260;BME280;68938;48.150;14.004;2023-05-08T02:51:22;98561.31;;;11.38;63.94
3260;BME280;68938;48.150;14.004;2023-05-08T02:53:58;98565.84;;;11.27;63.94
3260;BME280;68938;48.150;14.004;2023-05-08T02:56:37;98568.13;;;11.05;65.00
3260;BME280;68938;48.150;14.004;2023-05-08T02:59:17;98557.13;;;11.00;64.15
3260;BME280;68938;48.150;14.004;2023-05-08T03:01:53;98562.03;;;11.09;64.78
3260;BME280;68938;48.150;14.004;2023-05-08T03:04:31;98563.97;;;11.34;64.18
3260;BME280;68938;48.150;14.004;2023-05-08T03:07:03;98563.75;;;11.42;64.09
3260;BME280;68938;48.150;14.004;2023-05-08T03:09:54;98568.75;;;11.15;64.70
3260;BME280;68938;48.150;14.004;2023-05-08T03:12:27;98569.31;;;11.26;64.24
3260;BME280;68938;48.150;14.004;2023-05-08T03:17:57;98573.50;;;11.61;63.22
3260;BME280;68938;48.150;14.004;2023-05-08T03:20:34;98565.25;;;11.50;63.19
3260;BME280;68938;48.150;14.004;2023-05-08T03:23:05;98570.47;;;11.78;62.35
3260;BME280;68938;48.150;14.004;2023-05-08T03:25:34;98580.09;;;11.72;62.78
3260;BME280;68938;48.150;14.004;2023-05-08T03:28:04;98578.72;;;11.58;63.51
3260;BME280;68938;48.150;14.004;2023-05-08T03:30:35;98573.34;;;11.35;64.04
3260;BME280;68938;48.150;14.004;2023-05-08T03:33:04;98570.84;;;11.33;64.35
3260;BME280;68938;48.150;14.004;2023-05-08T03:35:34;98569.53;;;11.17;64.40
3260;BME280;68938;48.150;14.004;2023-05-08T03:38:03;98578.97;;;11.17;64.68
3260;BME280;68938;48.150;14.004;2023-05-08T03:40:32;98568.75;;;11.15;64.37
3260;BME280;68938;48.150;14.004;2023-05-08T03:43:00;98578.78;;;11.24;64.24
3260;BME280;68938;48.150;14.004;2023-05-08T03:45:29;98581.78;;;11.40;64.19
3260;BME280;68938;48.150;14.004;2023-05-08T03:47:57;98591.25;;;11.71;63.00
3260;BME280;68938;48.150;14.004;2023-05-08T03:50:25;98591.50;;;11.61;63.02
3260;BME280;68938;48.150;14.004;2023-05-08T03:52:52;98592.41;;;11.93;62.58
3260;BME280;68938;48.150;14.004;2023-05-08T03:55:19;98599.41;;;12.18;61.65
3260;BME280;68938;48.150;14.004;2023-05-08T03:57:56;98603.47;;;12.25;61.36
3260;BME280;68938;48.150;14.004;2023-05-08T04:03:29;98598.28;;;11.97;61.55
3260;BME280;68938;48.150;14.004;2023-05-08T04:06:05;98609.03;;;12.11;61.60
3260;BME280;68938;48.150;14.004;2023-05-08T04:09:01;98603.06;;;12.09;61.10
3260;BME280;68938;48.150;14.004;2023-05-08T04:14:29;98616.41;;;11.59;62.49
3260;BME280;68938;48.150;14.004;2023-05-08T04:17:02;98619.31;;;11.78;62.34
3260;BME280;68938;48.150;14.004;2023-05-08T04:19:35;98623.94;;;11.98;61.99
3260;BME280;68938;48.150;14.004;2023-05-08T04:22:06;98617.06;;;11.99;61.80
3260;BME280;68938;48.150;14.004;2023-05-08T04:24:38;98627.50;;;11.94;61.52
3260;BME280;68938;48.150;14.004;2023-05-08T04:27:08;98627.06;;;12.09;61.27
3260;BME280;68938;48.150;14.004;2023-05-08T04:29:36;98637.94;;;12.19;61.21
3260;BME280;68938;48.150;14.004;2023-05-08T04:32:04;98642.22;;;12.19;61.28
3260;BME280;68938;48.150;14.004;2023-05-08T04:34:32;98634.66;;;12.14;60.81
3260;BME280;68938;48.150;14.004;2023-05-08T04:36:59;98657.00;;;12.12;61.05
3260;BME280;68938;48.150;14.004;2023-05-08T04:39:26;98658.03;;;11.72;62.18
3260;BME280;68938;48.150;14.004;2023-05-08T04:41:53;98655.59;;;11.68;62.47
3260;BME280;68938;48.150;14.004;2023-05-08T04:44:20;98659.25;;;11.59;63.18
3260;BME280;68938;48.150;14.004;2023-05-08T04:46:47;98665.56;;;11.80;62.59
3260;BME280;68938;48.150;14.004;2023-05-08T04:49:14;98670.47;;;11.89;62.38
3260;BME280;68938;48.150;14.004;2023-05-08T04:51:41;98672.41;;;12.14;61.30
3260;BME280;68938;48.150;14.004;2023-05-08T04:54:07;98671.97;;;11.28;64.26
3260;BME280;68938;48.150;14.004;2023-05-08T04:56:35;98683.34;;;11.19;64.83
3260;BME280;68938;48.150;14.004;2023-05-08T04:59:01;98676.72;;;11.45;64.53
3260;BME280;68938;48.150;14.004;2023-05-08T05:01:28;98680.31;;;11.37;64.33
3260;BME280;68938;48.150;14.004;2023-05-08T05:03:55;98680.38;;;11.70;63.81
3260;BME280;68938;48.150;14.004;2023-05-08T05:06:22;98677.53;;;11.45;64.32
3260;BME280;68938;48.150;14.004;2023-05-08T05:08:49;98667.88;;;11.21;64.31
3260;BME280;68938;48.150;14.004;2023-05-08T05:11:16;98688.03;;;11.37;64.68
3260;BME280;68938;48.150;14.004;2023-05-08T05:13:43;98681.44;;;11.61;63.99
3260;BME280;68938;48.150;14.004;2023-05-08T05:16:09;98677.53;;;11.79;63.52
3260;BME280;68938;48.150;14.004;2023-05-08T05:18:36;98676.88;;;11.73;63.34
3260;BME280;68938;48.150;14.004;2023-05-08T05:21:03;98688.78;;;11.75;63.19
3260;BME280;68938;48.150;14.004;2023-05-08T05:23:30;98693.44;;;11.61;63.45
3260;BME280;68938;48.150;14.004;2023-05-08T05:25:57;98687.59;;;11.54;63.57
3260;BME280;68938;48.150;14.004;2023-05-08T05:28:24;98696.22;;;11.52;63.63
3260;BME280;68938;48.150;14.004;2023-05-08T05:30:50;98691.72;;;11.61;63.14
3260;BME280;68938;48.150;14.004;2023-05-08T05:33:17;98688.16;;;11.67;63.44
3260;BME280;68938;48.150;14.004;2023-05-08T05:35:44;98688.69;;;11.46;63.77
3260;BME280;68938;48.150;14.004;2023-05-08T05:38:11;98685.50;;;11.70;63.34
3260;BME280;68938;48.150;14.004;2023-05-08T05:40:38;98679.63;;;11.65;63.17
3260;BME280;68938;48.150;14.004;2023-05-08T05:43:05;98695.81;;;12.03;62.46
3260;BME280;68938;48.150;14.004;2023-05-08T05:45:32;98696.69;;;12.02;61.86
3260;BME280;68938;48.150;14.004;2023-05-08T05:47:59;98684.31;;;11.83;61.71
3260;BME280;68938;48.150;14.004;2023-05-08T05:50:27;98692.59;;;11.95;62.16
3260;BME280;68938;48.150;14.004;2023-05-08T05:52:54;98701.47;;;11.83;62.66
3260;BME280;68938;48.150;14.004;2023-05-08T05:55:21;98700.00;;;11.73;62.53
3260;BME280;68938;48.150;14.004;2023-05-08T05:57:48;98707.44;;;11.49;62.42
3260;BME280;68938;48.150;14.004;2023-05-08T06:00:15;98703.66;;;11.98;62.26
3260;BME280;68938;48.150;14.004;2023-05-08T06:02:43;98709.97;;;11.87;61.89
3260;BME280;68938;48.150;14.004;2023-05-08T06:05:10;98713.84;;;11.67;62.41
3260;BME280;68938;48.150;14.004;2023-05-08T06:07:38;98698.28;;;12.07;61.20
3260;BME280;68938;48.150;14.004;2023-05-08T06:10:06;98717.88;;;12.43;60.71
3260;BME280;68938;48.150;14.004;2023-05-08T06:12:34;98708.03;;;12.27;59.79
3260;BME280;68938;48.150;14.004;2023-05-08T06:15:01;98702.38;;;12.13;60.00
3260;BME280;68938;48.150;14.004;2023-05-08T06:17:27;98717.56;;;12.22;60.30
3260;BME280;68938;48.150;14.004;2023-05-08T06:19:54;98718.03;;;12.37;59.64
3260;BME280;68938;48.150;14.004;2023-05-08T06:22:22;98711.16;;;12.37;59.76
3260;BME280;68938;48.150;14.004;2023-05-08T06:24:50;98718.16;;;12.01;60.03
3260;BME280;68938;48.150;14.004;2023-05-08T06:27:18;98721.63;;;12.31;59.82
3260;BME280;68938;48.150;14.004;2023-05-08T06:29:49;98726.16;;;11.90;60.87
3260;BME280;68938;48.150;14.004;2023-05-08T06:32:16;98717.41;;;11.97;60.94
3260;BME280;68938;48.150;14.004;2023-05-08T06:34:43;98726.84;;;11.97;60.51
3260;BME280;68938;48.150;14.004;2023-05-08T06:37:11;98725.59;;;12.12;60.38
3260;BME280;68938;48.150;14.004;2023-05-08T06:39:38;98723.53;;;11.92;60.87
3260;BME280;68938;48.150;14.004;2023-05-08T06:42:05;98731.72;;;12.06;60.58
3260;BME280;68938;48.150;14.004;2023-05-08T06:44:34;98726.41;;;12.12;60.22
3260;BME280;68938;48.150;14.004;2023-05-08T06:47:01;98723.72;;;11.84;61.04
3260;BME280;68938;48.150;14.004;2023-05-08T06:49:28;98733.06;;;11.88;60.46
3260;BME280;68938;48.150;14.004;2023-05-08T06:51:55;98733.50;;;12.04;60.48
3260;BME280;68938;48.150;14.004;2023-05-08T06:54:23;98736.47;;;12.21;60.17
3260;BME280;68938;48.150;14.004;2023-05-08T06:56:53;98734.78;;;12.51;59.91
3260;BME280;68938;48.150;14.004;2023-05-08T06:59:20;98739.66;;;12.61;59.39
3260;BME280;68938;48.150;14.004;2023-05-08T07:01:47;98738.63;;;12.37;58.91
3260;BME280;68938;48.150;14.004;2023-05-08T07:04:15;98740.41;;;12.64;59.30
3260;BME280;68938;48.150;14.004;2023-05-08T07:06:42;98729.94;;;12.70;58.43
3260;BME280;68938;48.150;14.004;2023-05-08T07:09:08;98733.69;;;12.60;58.27
3260;BME280;68938;48.150;14.004;2023-05-08T07:11:35;98731.78;;;12.36;59.17
3260;BME280;68938;48.150;14.004;2023-05-08T07:14:02;98742.41;;;12.23;59.13
3260;BME280;68938;48.150;14.004;2023-05-08T07:16:29;98745.56;;;12.35;59.59
3260;BME280;68938;48.150;14.004;2023-05-08T07:18:56;98741.56;;;12.23;59.94
3260;BME280;68938;48.150;14.004;2023-05-08T07:21:23;98743.59;;;12.43;59.28
3260;BME280;68938;48.150;14.004;2023-05-08T07:23:49;98744.53;;;12.40;58.91
3260;BME280;68938;48.150;14.004;2023-05-08T07:26:16;98754.25;;;12.29;59.11
3260;BME280;68938;48.150;14.004;2023-05-08T07:28:43;98746.41;;;12.33;59.83
3260;BME280;68938;48.150;14.004;2023-05-08T07:31:10;98745.75;;;12.58;58.82
3260;BME280;68938;48.150;14.004;2023-05-08T07:33:37;98748.38;;;12.56;58.64
3260;BME280;68938;48.150;14.004;2023-05-08T07:36:04;98746.00;;;12.49;58.47
3260;BME280;68938;48.150;14.004;2023-05-08T07:38:31;98751.22;;;12.46;58.93
3260;BME280;68938;48.150;14.004;2023-05-08T07:40:58;98747.16;;;12.37;59.73
3260;BME280;68938;48.150;14.004;2023-05-08T07:43:25;98752.06;;;12.15;59.86
3260;BME280;68938;48.150;14.004;2023-05-08T07:45:52;98750.53;;;12.08;59.64
3260;BME280;68938;48.150;14.004;2023-05-08T07:48:19;98753.38;;;11.97;60.26
3260;BME280;68938;48.150;14.004;2023-05-08T07:50:48;98748.75;;;12.43;59.95
3260;BME280;68938;48.150;14.004;2023-05-08T07:53:16;98757.38;;;12.40;59.09
3260;BME280;68938;48.150;14.004;2023-05-08T07:55:43;98754.66;;;12.46;58.67
3260;BME280;68938;48.150;14.004;2023-05-08T07:58:10;98756.22;;;12.52;58.58
3260;BME280;68938;48.150;14.004;2023-05-08T08:00:37;98748.13;;;12.66;57.94
3260;BME280;68938;48.150;14.004;2023-05-08T08:03:04;98745.44;;;12.69;57.77
3260;BME280;68938;48.150;14.004;2023-05-08T08:05:31;98746.59;;;12.88;57.86
3260;BME280;68938;48.150;14.004;2023-05-08T08:07:57;98745.09;;;13.09;57.54
3260;BME280;68938;48.150;14.004;2023-05-08T08:10:24;98746.41;;;13.24;56.85
3260;BME280;68938;48.150;14.004;2023-05-08T08:12:51;98756.06;;;13.16;56.20
3260;BME280;68938;48.150;14.004;2023-05-08T08:15:18;98743.41;;;13.08;56.44
3260;BME280;68938;48.150;14.004;2023-05-08T08:17:45;98753.94;;;12.72;56.92
3260;BME280;68938;48.150;14.004;2023-05-08T08:20:12;98750.41;;;12.44;58.13
3260;BME280;68938;48.150;14.004;2023-05-08T08:22:39;98752.88;;;12.48;58.68
3260;BME280;68938;48.150;14.004;2023-05-08T08:25:06;98759.94;;;12.71;58.10
3260;BME280;68938;48.150;14.004;2023-05-08T08:27:33;98754.41;;;12.85;57.47
3260;BME280;68938;48.150;14.004;2023-05-08T08:30:00;98747.28;;;12.64;57.16
3260;BME280;68938;48.150;14.004;2023-05-08T08:32:43;98761.75;;;12.68;56.67
3260;BME280;68938;48.150;14.004;2023-05-08T08:35:10;98759.03;;;12.74;57.60
3260;BME280;68938;48.150;14.004;2023-05-08T08:37:38;98759.16;;;12.69;56.89
3260;BME280;68938;48.150;14.004;2023-05-08T08:40:06;98765.66;;;12.51;57.13
3260;BME280;68938;48.150;14.004;2023-05-08T08:42:33;98758.34;;;12.67;57.50
3260;BME280;68938;48.150;14.004;2023-05-08T08:45:00;98754.84;;;12.99;56.96
3260;BME280;68938;48.150;14.004;2023-05-08T08:47:34;98742.94;;;12.95;55.92
3260;BME280;68938;48.150;14.004;2023-05-08T08:50:02;98754.94;;;12.96;56.41
3260;BME280;68938;48.150;14.004;2023-05-08T08:52:55;98745.38;;;13.30;56.40
3260;BME280;68938;48.150;14.004;2023-05-08T08:55:47;98746.75;;;13.40;55.78
3260;BME280;68938;48.150;14.004;2023-05-08T08:58:37;98754.91;;;13.27;55.97
3260;BME280;68938;48.150;14.004;2023-05-08T09:01:08;98746.00;;;13.36;54.88
3260;BME280;68938;48.150;14.004;2023-05-08T09:03:41;98745.06;;;13.40;54.94
3260;BME280;68938;48.150;14.004;2023-05-08T09:06:08;98743.28;;;13.67;54.82
3260;BME280;68938;48.150;14.004;2023-05-08T09:08:36;98743.63;;;13.85;53.04
3260;BME280;68938;48.150;14.004;2023-05-08T09:11:03;98744.34;;;13.88;53.41
3260;BME280;68938;48.150;14.004;2023-05-08T09:13:30;98741.44;;;13.97;53.47
3260;BME280;68938;48.150;14.004;2023-05-08T09:15:58;98738.81;;;14.24;52.45
3260;BME280;68938;48.150;14.004;2023-05-08T09:18:26;98739.25;;;14.35;53.05
3260;BME280;68938;48.150;14.004;2023-05-08T09:20:53;98736.47;;;14.41;53.97
3260;BME280;68938;48.150;14.004;2023-05-08T09:23:20;98725.03;;;14.74;51.91
3260;BME280;68938;48.150;14.004;2023-05-08T09:25:47;98737.34;;;14.65;50.89
3260;BME280;68938;48.150;14.004;2023-05-08T09:28:17;98733.31;;;14.58;51.51
3260;BME280;68938;48.150;14.004;2023-05-08T09:30:56;98729.56;;;15.12;51.20
3260;BME280;68938;48.150;14.004;2023-05-08T09:33:28;98726.91;;;15.14;51.86
3260;BME280;68938;48.150;14.004;2023-05-08T09:35:55;98723.53;;;15.56;50.03
3260;BME280;68938;48.150;14.004;2023-05-08T09:38:34;98726.28;;;15.51;48.89
3260;BME280;68938;48.150;14.004;2023-05-08T09:41:09;98725.25;;;15.55;49.44
3260;BME280;68938;48.150;14.004;2023-05-08T09:43:37;98720.25;;;15.08;49.19
3260;BME280;68938;48.150;14.004;2023-05-08T09:46:23;98734.25;;;15.25;49.17
3260;BME280;68938;48.150;14.004;2023-05-08T09:48:55;98717.88;;;15.46;49.65
3260;BME280;68938;48.150;14.004;2023-05-08T09:51:24;98717.41;;;15.36;50.02
3260;BME280;68938;48.150;14.004;2023-05-08T09:53:53;98713.72;;;15.64;51.19
3260;BME280;68938;48.150;14.004;2023-05-08T09:56:48;98705.41;;;15.98;48.51
3260;BME280;68938;48.150;14.004;2023-05-08T09:59:28;98707.38;;;16.32;48.74
3260;BME280;68938;48.150;14.004;2023-05-08T10:01:58;98701.84;;;16.40;47.18
3260;BME280;68938;48.150;14.004;2023-05-08T10:04:35;98707.03;;;16.40;47.18
3260;BME280;68938;48.150;14.004;2023-05-08T10:07:03;98700.78;;;16.25;45.87
3260;BME280;68938;48.150;14.004;2023-05-08T10:09:30;98703.00;;;16.14;47.83
3260;BME280;68938;48.150;14.004;2023-05-08T10:12:15;98701.56;;;16.27;47.88
3260;BME280;68938;48.150;14.004;2023-05-08T10:14:42;98694.97;;;16.78;46.64
3260;BME280;68938;48.150;14.004;2023-05-08T10:17:15;98701.88;;;16.59;45.48
3260;BME280;68938;48.150;14.004;2023-05-08T10:19:52;98696.19;;;16.51;44.50
3260;BME280;68938;48.150;14.004;2023-05-08T10:22:24;98682.09;;;16.96;44.54
3260;BME280;68938;48.150;14.004;2023-05-08T10:24:55;98687.28;;;16.77;45.78
3260;BME280;68938;48.150;14.004;2023-05-08T10:27:40;98686.19;;;16.43;45.26
3260;BME280;68938;48.150;14.004;2023-05-08T10:30:23;98681.81;;;16.83;46.90
3260;BME280;68938;48.150;14.004;2023-05-08T10:32:52;98674.81;;;17.02;45.45
3260;BME280;68938;48.150;14.004;2023-05-08T10:35:20;98678.63;;;16.95;45.47
3260;BME280;68938;48.150;14.004;2023-05-08T10:37:49;98675.19;;;17.14;44.77
3260;BME280;68938;48.150;14.004;2023-05-08T10:40:16;98668.50;;;17.27;45.05
3260;BME280;68938;48.150;14.004;2023-05-08T10:42:44;98664.28;;;17.24;44.54
3260;BME280;68938;48.150;14.004;2023-05-08T10:45:11;98660.78;;;17.25;46.79
3260;BME280;68938;48.150;14.004;2023-05-08T10:53:38;98667.03;;;17.56;45.19
3260;BME280;68938;48.150;14.004;2023-05-08T10:56:08;98651.06;;;17.12;43.85
3260;BME280;68938;48.150;14.004;2023-05-08T10:58:36;98656.66;;;17.21;43.95
3260;BME280;68938;48.150;14.004;2023-05-08T11:01:14;98655.66;;;17.24;44.81
3260;BME280;68938;48.150;14.004;2023-05-08T11:03:46;98640.94;;;17.59;43.50
3260;BME280;68938;48.150;14.004;2023-05-08T11:06:15;98646.91;;;17.26;42.50
3260;BME280;68938;48.150;14.004;2023-05-08T11:08:45;98646.06;;;17.43;43.40
3260;BME280;68938;48.150;14.004;2023-05-08T11:14:08;98640.19;;;17.74;43.30
3260;BME280;68938;48.150;14.004;2023-05-08T11:19:24;98647.00;;;18.10;42.74
3260;BME280;68938;48.150;14.004;2023-05-08T11:27:31;98629.59;;;18.12;42.07
3260;BME280;68938;48.150;14.004;2023-05-08T11:35:49;98619.50;;;18.39;43.29
3260;BME280;68938;48.150;14.004;2023-05-08T11:41:06;98617.56;;;18.27;43.21
3260;BME280;68938;48.150;14.004;2023-05-08T11:43:47;98615.16;;;18.72;43.18
3260;BME280;68938;48.150;14.004;2023-05-08T11:46:19;98607.44;;;18.86;42.70
3260;BME280;68938;48.150;14.004;2023-05-08T11:48:47;98599.91;;;18.81;41.83
3260;BME280;68938;48.150;14.004;2023-05-08T11:51:16;98599.78;;;18.99;42.67
3260;BME280;68938;48.150;14.004;2023-05-08T11:53:43;98601.81;;;18.46;41.45
3260;BME280;68938;48.150;14.004;2023-05-08T11:56:13;98602.22;;;18.86;42.00
3260;BME280;68938;48.150;14.004;2023-05-08T11:58:40;98581.97;;;19.07;41.26
3260;BME280;68938;48.150;14.004;2023-05-08T12:01:06;98587.94;;;19.09;41.48
3260;BME280;68938;48.150;14.004;2023-05-08T12:03:34;98594.50;;;19.00;41.79
3260;BME280;68938;48.150;14.004;2023-05-08T12:06:01;98593.00;;;18.80;41.35
3260;BME280;68938;48.150;14.004;2023-05-08T12:08:28;98597.19;;;18.83;40.92
3260;BME280;68938;48.150;14.004;2023-05-08T12:10:56;98596.88;;;18.57;42.04
3260;BME280;68938;48.150;14.004;2023-05-08T12:13:28;98580.50;;;18.87;42.22
3260;BME280;68938;48.150;14.004;2023-05-08T12:15:58;98592.94;;;18.82;41.96
3260;BME280;68938;48.150;14.004;2023-05-08T12:18:27;98585.34;;;19.09;41.46
3260;BME280;68938;48.150;14.004;2023-05-08T12:20:59;98596.91;;;19.03;42.07
3260;BME280;68938;48.150;14.004;2023-05-08T12:23:29;98583.09;;;19.33;40.89
3260;BME280;68938;48.150;14.004;2023-05-08T12:26:00;98575.00;;;19.52;41.33
3260;BME280;68938;48.150;14.004;2023-05-08T12:28:28;98578.34;;;19.25;41.38
3260;BME280;68938;48.150;14.004;2023-05-08T12:30:55;98583.22;;;19.46;40.72
3260;BME280;68938;48.150;14.004;2023-05-08T12:33:23;98579.00;;;19.43;41.02
3260;BME280;68938;48.150;14.004;2023-05-08T12:35:50;98568.44;;;19.60;40.35
3260;BME280;68938;48.150;14.004;2023-05-08T12:38:17;98564.66;;;19.80;40.83
3260;BME280;68938;48.150;14.004;2023-05-08T12:40:46;98568.09;;;19.67;39.43
3260;BME280;68938;48.150;14.004;2023-05-08T12:43:13;98561.41;;;19.91;40.44
3260;BME280;68938;48.150;14.004;2023-05-08T12:45:41;98567.97;;;20.25;40.67
3260;BME280;68938;48.150;14.004;2023-05-08T12:48:13;98564.72;;;19.50;41.04
3260;BME280;68938;48.150;14.004;2023-05-08T12:50:43;98565.00;;;19.60;40.95
3260;BME280;68938;48.150;14.004;2023-05-08T12:53:19;98564.00;;;19.91;41.77
3260;BME280;68938;48.150;14.004;2023-05-08T12:55:55;98557.78;;;19.94;40.79
3260;BME280;68938;48.150;14.004;2023-05-08T12:58:28;98558.59;;;20.08;40.62
3260;BME280;68938;48.150;14.004;2023-05-08T13:01:08;98556.53;;;20.13;40.00
3260;BME280;68938;48.150;14.004;2023-05-08T13:03:39;98561.38;;;20.05;40.76
3260;BME280;68938;48.150;14.004;2023-05-08T13:06:18;98546.78;;;19.60;40.67
3260;BME280;68938;48.150;14.004;2023-05-08T13:08:52;98552.13;;;19.73;40.21
3260;BME280;68938;48.150;14.004;2023-05-08T13:11:32;98553.09;;;19.56;40.79
3260;BME280;68938;48.150;14.004;2023-05-08T13:13:59;98558.66;;;19.35;40.82
3260;BME280;68938;48.150;14.004;2023-05-08T13:16:26;98544.72;;;19.36;42.15
3260;BME280;68938;48.150;14.004;2023-05-08T13:18:53;98545.66;;;19.35;42.06
3260;BME280;68938;48.150;14.004;2023-05-08T13:21:20;98544.06;;;19.33;41.88
3260;BME280;68938;48.150;14.004;2023-05-08T13:23:46;98540.06;;;18.97;42.00
3260;BME280;68938;48.150;14.004;2023-05-08T13:26:13;98546.88;;;19.14;41.96
3260;BME280;68938;48.150;14.004;2023-05-08T13:28:40;98546.19;;;19.26;42.25
3260;BME280;68938;48.150;14.004;2023-05-08T13:31:07;98538.16;;;19.59;42.18
3260;BME280;68938;48.150;14.004;2023-05-08T13:33:34;98539.22;;;19.55;41.82
3260;BME280;68938;48.150;14.004;2023-05-08T13:36:01;98535.78;;;19.55;41.60
3260;BME280;68938;48.150;14.004;2023-05-08T13:38:28;98528.88;;;19.70;41.26
3260;BME280;68938;48.150;14.004;2023-05-08T13:40:55;98527.09;;;19.84;41.58
3260;BME280;68938;48.150;14.004;2023-05-08T13:43:21;98531.56;;;19.82;40.75
3260;BME280;68938;48.150;14.004;2023-05-08T13:45:48;98502.63;;;19.44;40.90
3260;BME280;68938;48.150;14.004;2023-05-08T13:48:15;98523.91;;;19.79;41.87
3260;BME280;68938;48.150;14.004;2023-05-08T13:50:42;98528.94;;;20.11;40.92
3260;BME280;68938;48.150;14.004;2023-05-08T13:53:09;98516.94;;;20.08;41.02
3260;BME280;68938;48.150;14.004;2023-05-08T13:55:36;98515.41;;;20.19;40.95
3260;BME280;68938;48.150;14.004;2023-05-08T13:58:03;98521.47;;;20.19;40.46
3260;BME280;68938;48.150;14.004;2023-05-08T14:00:30;98524.59;;;19.97;40.48
3260;BME280;68938;48.150;14.004;2023-05-08T14:02:57;98523.38;;;20.30;40.51
3260;BME280;68938;48.150;14.004;2023-05-08T14:05:24;98524.56;;;20.53;41.16
3260;BME280;68938;48.150;14.004;2023-05-08T14:07:51;98525.97;;;20.71;40.52